sensor_id;sensor_type;location;lat;lon;timestamp;temperature;humidity
10070;DHT22;5074;53.720;10.014;2022-12-07T00:01:19;2.60;99.90
10070;DHT22;5074;53.720;10.014;2022-12-07T00:03:50;2.60;99.90
10070;DHT22;5074;53.720;10.014;2022-12-07T00:06:20;2.60;99.90
10070;DHT22;5074;53.720;10.014;2022-12-07T00:08:48;2.70;99.90
10070;DHT22;5074;53.720;10.014;2022-12-07T00:11:17;2.70;99.90
10070;DHT22;5074;53.720;10.014;2022-12-07T00:13:47;2.70;99.90
10070;DHT22;5074;53.720;10.014;2022-12-07T00:16:19;2.70;99.90
10070;DHT22;5074;53.720;10.014;2022-12-07T00:18:50;2.70;99.90
10070;DHT22;5074;53.720;10.014;2022-12-07T00:21:18;2.80;99.90
10070;DHT22;5074;53.720;10.014;2022-12-07T00:23:48;2.70;99.90
10070;DHT22;5074;53.720;10.014;2022-12-07T00:26:17;2.80;99.90
10070;DHT22;5074;53.720;10.014;2022-12-07T00:28:47;2.80;99.90
10070;DHT22;5074;53.720;10.014;2022-12-07T00:31:17;2.80;99.90
10070;DHT22;5074;53.720;10.014;2022-12-07T00:33:46;2.80;99.90
10070;DHT22;5074;53.720;10.014;2022-12-07T00:36:17;2.80;99.90
10070;DHT22;5074;53.720;10.014;2022-12-07T00:38:52;2.80;99.90
10070;DHT22;5074;53.720;10.014;2022-12-07T00:41:21;2.80;99.90
10070;DHT22;5074;53.720;10.014;2022-12-07T00:43:50;2.80;99.90
10070;DHT22;5074;53.720;10.014;2022-12-07T00:46:19;2.80;99.90
10070;DHT22;5074;53.720;10.014;2022-12-07T00:48:48;2.80;99.90
10070;DHT22;5074;53.720;10.014;2022-12-07T00:51:19;2.80;99.90
10070;DHT22;5074;53.720;10.014;2022-12-07T00:53:50;2.80;99.90
10070;DHT22;5074;53.720;10.014;2022-12-07T00:56:20;2.80;99.90
10070;DHT22;5074;53.720;10.014;2022-12-07T00:58:50;2.80;99.90
10070;DHT22;5074;53.720;10.014;2022-12-07T01:01:19;2.80;99.90
10070;DHT22;5074;53.720;10.014;2022-12-07T01:03:48;2.70;99.90
10070;DHT22;5074;53.720;10.014;2022-12-07T01:06:16;2.70;99.90
10070;DHT22;5074;53.720;10.014;2022-12-07T01:08:47;2.80;99.90
10070;DHT22;5074;53.720;10.014;2022-12-07T01:11:16;2.70;99.90
10070;DHT22;5074;53.720;10.014;2022-12-07T01:13:45;2.70;99.90
10070;DHT22;5074;53.720;10.014;2022-12-07T01:16:14;2.70;99.90
10070;DHT22;5074;53.720;10.014;2022-12-07T01:18:45;2.70;99.90
10070;DHT22;5074;53.720;10.014;2022-12-07T01:21:15;2.70;99.90
10070;DHT22;5074;53.720;10.014;2022-12-07T01:23:44;2.70;99.90
10070;DHT22;5074;53.720;10.014;2022-12-07T01:26:14;2.70;99.90
10070;DHT22;5074;53.720;10.014;2022-12-07T01:28:44;2.60;99.90
10070;DHT22;5074;53.720;10.014;2022-12-07T01:31:14;2.60;99.90
10070;DHT22;5074;53.720;10.014;2022-12-07T01:33:43;2.60;99.90
10070;DHT22;5074;53.720;10.014;2022-12-07T01:36:14;2.50;99.90
10070;DHT22;5074;53.720;10.014;2022-12-07T01:38:43;2.50;99.90
10070;DHT22;5074;53.720;10.014;2022-12-07T01:41:13;2.50;99.90
10070;DHT22;5074;53.720;10.014;2022-12-07T01:46:36;2.40;99.90
10070;DHT22;5074;53.720;10.014;2022-12-07T01:49:04;2.50;99.90
10070;DHT22;5074;53.720;10.014;2022-12-07T01:51:36;2.40;99.90
10070;DHT22;5074;53.720;10.014;2022-12-07T01:54:08;2.50;99.90
10070;DHT22;5074;53.720;10.014;2022-12-07T01:56:40;2.50;99.90
10070;DHT22;5074;53.720;10.014;2022-12-07T01:59:12;2.50;99.90
10070;DHT22;5074;53.720;10.014;2022-12-07T02:01:41;2.40;99.90
10070;DHT22;5074;53.720;10.014;2022-12-07T02:04:09;2.40;99.90
10070;DHT22;5074;53.720;10.014;2022-12-07T02:06:38;2.40;99.90
10070;DHT22;5074;53.720;10.014;2022-12-07T02:09:09;2.40;99.90
10070;DHT22;5074;53.720;10.014;2022-12-07T02:11:37;2.40;99.90
10070;DHT22;5074;53.720;10.014;2022-12-07T02:14:07;2.50;99.90
10070;DHT22;5074;53.720;10.014;2022-12-07T02:16:37;2.50;99.90
10070;DHT22;5074;53.720;10.014;2022-12-07T02:19:22;2.50;99.90
10070;DHT22;5074;53.720;10.014;2022-12-07T02:22:18;2.50;99.90
10070;DHT22;5074;53.720;10.014;2022-12-07T02:25:04;2.40;99.90
10070;DHT22;5074;53.720;10.014;2022-12-07T02:27:44;2.40;99.90
10070;DHT22;5074;53.720;10.014;2022-12-07T02:30:16;2.40;99.90
10070;DHT22;5074;53.720;10.014;2022-12-07T02:32:48;2.40;99.90
10070;DHT22;5074;53.720;10.014;2022-12-07T02:35:25;2.40;99.90
10070;DHT22;5074;53.720;10.014;2022-12-07T02:37:59;2.40;99.90
10070;DHT22;5074;53.720;10.014;2022-12-07T02:40:33;2.40;99.90
10070;DHT22;5074;53.720;10.014;2022-12-07T02:43:05;2.30;99.90
10070;DHT22;5074;53.720;10.014;2022-12-07T02:45:38;2.30;99.90
10070;DHT22;5074;53.720;10.014;2022-12-07T02:48:10;2.20;99.90
10070;DHT22;5074;53.720;10.014;2022-12-07T02:50:43;2.20;99.90
10070;DHT22;5074;53.720;10.014;2022-12-07T02:53:28;2.20;99.90
10070;DHT22;5074;53.720;10.014;2022-12-07T02:55:58;2.20;99.90
10070;DHT22;5074;53.720;10.014;2022-12-07T02:58:32;2.10;99.90
10070;DHT22;5074;53.720;10.014;2022-12-07T03:01:10;2.10;99.90
10070;DHT22;5074;53.720;10.014;2022-12-07T03:03:53;2.10;99.90
10070;DHT22;5074;53.720;10.014;2022-12-07T03:06:31;2.10;99.90
10070;DHT22;5074;53.720;10.014;2022-12-07T03:09:09;2.10;99.90
10070;DHT22;5074;53.720;10.014;2022-12-07T03:11:43;2.00;99.90
10070;DHT22;5074;53.720;10.014;2022-12-07T03:14:15;2.00;99.90
10070;DHT22;5074;53.720;10.014;2022-12-07T03:16:51;1.90;99.90
10070;DHT22;5074;53.720;10.014;2022-12-07T03:19:25;1.90;99.90
10070;DHT22;5074;53.720;10.014;2022-12-07T03:21:55;1.90;99.90
10070;DHT22;5074;53.720;10.014;2022-12-07T03:24:26;1.90;99.90
10070;DHT22;5074;53.720;10.014;2022-12-07T03:26:59;1.80;99.90
10070;DHT22;5074;53.720;10.014;2022-12-07T03:29:32;1.80;99.90
10070;DHT22;5074;53.720;10.014;2022-12-07T03:32:05;1.80;99.90
10070;DHT22;5074;53.720;10.014;2022-12-07T03:34:38;1.80;99.90
10070;DHT22;5074;53.720;10.014;2022-12-07T03:37:12;1.70;99.90
10070;DHT22;5074;53.720;10.014;2022-12-07T03:39:46;1.70;99.90
10070;DHT22;5074;53.720;10.014;2022-12-07T03:42:24;1.70;99.90
10070;DHT22;5074;53.720;10.014;2022-12-07T03:44:53;1.70;99.90
10070;DHT22;5074;53.720;10.014;2022-12-07T03:47:24;1.70;99.90
10070;DHT22;5074;53.720;10.014;2022-12-07T03:49:58;1.70;99.90
10070;DHT22;5074;53.720;10.014;2022-12-07T03:52:31;1.70;99.90
10070;DHT22;5074;53.720;10.014;2022-12-07T03:55:05;1.70;99.90
10070;DHT22;5074;53.720;10.014;2022-12-07T03:57:37;1.70;99.90
10070;DHT22;5074;53.720;10.014;2022-12-07T04:00:09;1.60;99.90
10070;DHT22;5074;53.720;10.014;2022-12-07T04:02:40;1.60;99.90
10070;DHT22;5074;53.720;10.014;2022-12-07T04:05:09;1.60;99.90
10070;DHT22;5074;53.720;10.014;2022-12-07T04:07:38;1.60;99.90
10070;DHT22;5074;53.720;10.014;2022-12-07T04:10:06;1.60;99.90
10070;DHT22;5074;53.720;10.014;2022-12-07T04:12:35;1.50;99.90
10070;DHT22;5074;53.720;10.014;2022-12-07T04:15:03;1.50;99.90
10070;DHT22;5074;53.720;10.014;2022-12-07T04:17:32;1.50;99.90
10070;DHT22;5074;53.720;10.014;2022-12-07T04:20:02;1.50;99.90
10070;DHT22;5074;53.720;10.014;2022-12-07T04:22:31;1.50;99.90
10070;DHT22;5074;53.720;10.014;2022-12-07T04:24:59;1.50;99.90
10070;DHT22;5074;53.720;10.014;2022-12-07T04:27:27;1.50;99.90
10070;DHT22;5074;53.720;10.014;2022-12-07T04:29:55;1.40;99.90
10070;DHT22;5074;53.720;10.014;2022-12-07T04:32:24;1.40;99.90
10070;DHT22;5074;53.720;10.014;2022-12-07T04:34:52;1.40;99.90
10070;DHT22;5074;53.720;10.014;2022-12-07T04:37:23;1.40;99.90
10070;DHT22;5074;53.720;10.014;2022-12-07T04:39:51;1.30;99.90
10070;DHT22;5074;53.720;10.014;2022-12-07T04:42:19;1.30;99.90
10070;DHT22;5074;53.720;10.014;2022-12-07T04:44:48;1.30;99.90
10070;DHT22;5074;53.720;10.014;2022-12-07T04:47:16;1.30;99.90
10070;DHT22;5074;53.720;10.014;2022-12-07T04:49:44;1.30;99.90
10070;DHT22;5074;53.720;10.014;2022-12-07T04:52:12;1.20;99.90
10070;DHT22;5074;53.720;10.014;2022-12-07T04:54:41;1.20;99.90
10070;DHT22;5074;53.720;10.014;2022-12-07T04:57:09;1.20;99.90
10070;DHT22;5074;53.720;10.014;2022-12-07T04:59:37;1.20;99.90
10070;DHT22;5074;53.720;10.014;2022-12-07T05:02:11;1.20;99.90
10070;DHT22;5074;53.720;10.014;2022-12-07T05:04:39;1.20;99.90
10070;DHT22;5074;53.720;10.014;2022-12-07T05:07:07;1.20;99.90
10070;DHT22;5074;53.720;10.014;2022-12-07T05:09:36;1.20;99.90
10070;DHT22;5074;53.720;10.014;2022-12-07T05:12:05;1.20;99.90
10070;DHT22;5074;53.720;10.014;2022-12-07T05:14:33;1.20;99.90
10070;DHT22;5074;53.720;10.014;2022-12-07T05:17:01;1.10;99.90
10070;DHT22;5074;53.720;10.014;2022-12-07T05:19:30;1.20;99.90
10070;DHT22;5074;53.720;10.014;2022-12-07T05:21:58;1.10;99.90
10070;DHT22;5074;53.720;10.014;2022-12-07T05:24:26;1.10;99.90
10070;DHT22;5074;53.720;10.014;2022-12-07T05:26:54;1.10;99.90
10070;DHT22;5074;53.720;10.014;2022-12-07T05:29:24;1.10;99.90
10070;DHT22;5074;53.720;10.014;2022-12-07T05:31:52;1.10;99.90
10070;DHT22;5074;53.720;10.014;2022-12-07T05:34:20;1.10;99.90
10070;DHT22;5074;53.720;10.014;2022-12-07T05:36:48;1.10;99.90
10070;DHT22;5074;53.720;10.014;2022-12-07T05:39:16;1.10;99.90
10070;DHT22;5074;53.720;10.014;2022-12-07T05:41:44;1.10;99.90
10070;DHT22;5074;53.720;10.014;2022-12-07T05:44:31;1.10;99.90
10070;DHT22;5074;53.720;10.014;2022-12-07T05:46:59;1.10;99.90
10070;DHT22;5074;53.720;10.014;2022-12-07T05:49:27;1.10;99.90
10070;DHT22;5074;53.720;10.014;2022-12-07T05:51:56;1.10;99.90
10070;DHT22;5074;53.720;10.014;2022-12-07T05:54:24;1.10;99.90
10070;DHT22;5074;53.720;10.014;2022-12-07T05:56:52;1.10;99.90
10070;DHT22;5074;53.720;10.014;2022-12-07T05:59:20;1.00;99.90
10070;DHT22;5074;53.720;10.014;2022-12-07T06:01:52;1.00;99.90
10070;DHT22;5074;53.720;10.014;2022-12-07T06:04:22;1.00;99.90
10070;DHT22;5074;53.720;10.014;2022-12-07T06:06:50;1.00;99.90
10070;DHT22;5074;53.720;10.014;2022-12-07T06:09:19;1.00;99.90
10070;DHT22;5074;53.720;10.014;2022-12-07T06:11:47;1.00;99.90
10070;DHT22;5074;53.720;10.014;2022-12-07T06:14:33;1.00;99.90
10070;DHT22;5074;53.720;10.014;2022-12-07T06:17:03;0.90;99.90
10070;DHT22;5074;53.720;10.014;2022-12-07T06:19:31;0.90;99.90
10070;DHT22;5074;53.720;10.014;2022-12-07T06:21:59;0.90;99.90
10070;DHT22;5074;53.720;10.014;2022-12-07T06:24:29;1.00;99.90
10070;DHT22;5074;53.720;10.014;2022-12-07T06:26:57;1.00;99.90
10070;DHT22;5074;53.720;10.014;2022-12-07T06:29:25;1.00;99.90
10070;DHT22;5074;53.720;10.014;2022-12-07T06:31:54;1.00;99.90
10070;DHT22;5074;53.720;10.014;2022-12-07T06:34:26;1.00;99.90
10070;DHT22;5074;53.720;10.014;2022-12-07T06:36:55;1.00;99.90
10070;DHT22;5074;53.720;10.014;2022-12-07T06:39:24;1.00;99.90
10070;DHT22;5074;53.720;10.014;2022-12-07T06:41:53;1.00;99.90
10070;DHT22;5074;53.720;10.014;2022-12-07T06:44:22;1.10;99.90
10070;DHT22;5074;53.720;10.014;2022-12-07T06:46:51;1.00;99.90
10070;DHT22;5074;53.720;10.014;2022-12-07T06:49:41;1.10;99.90
10070;DHT22;5074;53.720;10.014;2022-12-07T06:52:09;1.00;99.90
10070;DHT22;5074;53.720;10.014;2022-12-07T06:54:37;1.10;99.90
10070;DHT22;5074;53.720;10.014;2022-12-07T06:57:05;1.10;99.90
10070;DHT22;5074;53.720;10.014;2022-12-07T06:59:33;1.10;99.90
10070;DHT22;5074;53.720;10.014;2022-12-07T07:02:01;1.10;99.90
10070;DHT22;5074;53.720;10.014;2022-12-07T07:04:29;1.10;99.90
10070;DHT22;5074;53.720;10.014;2022-12-07T07:06:59;1.10;99.90
10070;DHT22;5074;53.720;10.014;2022-12-07T07:09:27;1.10;99.90
10070;DHT22;5074;53.720;10.014;2022-12-07T07:11:55;1.10;99.90
10070;DHT22;5074;53.720;10.014;2022-12-07T07:14:23;1.10;99.90
10070;DHT22;5074;53.720;10.014;2022-12-07T07:16:51;1.20;99.90
10070;DHT22;5074;53.720;10.014;2022-12-07T07:19:19;1.20;99.90
10070;DHT22;5074;53.720;10.014;2022-12-07T07:21:48;1.20;99.90
10070;DHT22;5074;53.720;10.014;2022-12-07T07:24:17;1.20;99.90
10070;DHT22;5074;53.720;10.014;2022-12-07T07:26:45;1.20;99.90
10070;DHT22;5074;53.720;10.014;2022-12-07T07:29:14;1.30;99.90
10070;DHT22;5074;53.720;10.014;2022-12-07T07:31:42;1.30;99.90
10070;DHT22;5074;53.720;10.014;2022-12-07T07:34:10;1.30;99.90
10070;DHT22;5074;53.720;10.014;2022-12-07T07:36:38;1.30;99.90
10070;DHT22;5074;53.720;10.014;2022-12-07T07:39:06;1.30;99.90
10070;DHT22;5074;53.720;10.014;2022-12-07T07:41:36;1.30;99.90
10070;DHT22;5074;53.720;10.014;2022-12-07T07:44:04;1.30;99.90
10070;DHT22;5074;53.720;10.014;2022-12-07T07:46:32;1.40;99.90
10070;DHT22;5074;53.720;10.014;2022-12-07T07:49:00;1.30;99.90
10070;DHT22;5074;53.720;10.014;2022-12-07T07:51:28;1.30;99.90
10070;DHT22;5074;53.720;10.014;2022-12-07T07:53:56;1.40;99.90
10070;DHT22;5074;53.720;10.014;2022-12-07T07:56:24;1.40;99.90
10070;DHT22;5074;53.720;10.014;2022-12-07T07:58:54;1.50;99.90
10070;DHT22;5074;53.720;10.014;2022-12-07T08:01:22;1.40;99.90
10070;DHT22;5074;53.720;10.014;2022-12-07T08:03:50;1.50;99.90
10070;DHT22;5074;53.720;10.014;2022-12-07T08:06:18;1.50;99.90
10070;DHT22;5074;53.720;10.014;2022-12-07T08:08:47;1.50;99.90
10070;DHT22;5074;53.720;10.014;2022-12-07T08:11:14;1.50;99.90
10070;DHT22;5074;53.720;10.014;2022-12-07T08:13:44;1.50;99.90
10070;DHT22;5074;53.720;10.014;2022-12-07T08:16:14;1.50;99.90
10070;DHT22;5074;53.720;10.014;2022-12-07T08:18:42;1.50;99.90
10070;DHT22;5074;53.720;10.014;2022-12-07T08:21:11;1.50;99.90
10070;DHT22;5074;53.720;10.014;2022-12-07T08:23:41;1.60;99.90
10070;DHT22;5074;53.720;10.014;2022-12-07T08:26:10;1.50;99.90
10070;DHT22;5074;53.720;10.014;2022-12-07T08:28:38;1.50;99.90
10070;DHT22;5074;53.720;10.014;2022-12-07T08:31:07;1.60;99.90
10070;DHT22;5074;53.720;10.014;2022-12-07T08:33:39;1.60;99.90
10070;DHT22;5074;53.720;10.014;2022-12-07T08:36:08;1.60;99.90
10070;DHT22;5074;53.720;10.014;2022-12-07T08:38:38;1.70;99.90
10070;DHT22;5074;53.720;10.014;2022-12-07T08:41:21;1.70;99.90
10070;DHT22;5074;53.720;10.014;2022-12-07T08:43:50;1.70;99.90
10070;DHT22;5074;53.720;10.014;2022-12-07T08:46:19;1.70;99.90
10070;DHT22;5074;53.720;10.014;2022-12-07T08:48:54;1.70;99.90
10070;DHT22;5074;53.720;10.014;2022-12-07T08:51:26;1.70;99.90
10070;DHT22;5074;53.720;10.014;2022-12-07T08:53:54;1.80;99.90
10070;DHT22;5074;53.720;10.014;2022-12-07T08:56:24;1.80;99.90
10070;DHT22;5074;53.720;10.014;2022-12-07T08:58:52;1.80;99.90
10070;DHT22;5074;53.720;10.014;2022-12-07T09:01:21;1.80;99.90
10070;DHT22;5074;53.720;10.014;2022-12-07T09:03:49;1.90;99.90
10070;DHT22;5074;53.720;10.014;2022-12-07T09:06:18;1.90;99.90
10070;DHT22;5074;53.720;10.014;2022-12-07T09:08:47;1.90;99.90
10070;DHT22;5074;53.720;10.014;2022-12-07T09:11:18;1.90;99.90
10070;DHT22;5074;53.720;10.014;2022-12-07T09:13:54;2.00;99.90
10070;DHT22;5074;53.720;10.014;2022-12-07T09:16:22;2.00;99.90
10070;DHT22;5074;53.720;10.014;2022-12-07T09:18:50;2.00;99.90
10070;DHT22;5074;53.720;10.014;2022-12-07T09:21:20;2.00;99.90
10070;DHT22;5074;53.720;10.014;2022-12-07T09:23:48;2.10;99.90
10070;DHT22;5074;53.720;10.014;2022-12-07T09:26:16;2.10;99.90
10070;DHT22;5074;53.720;10.014;2022-12-07T09:28:44;2.10;99.90
10070;DHT22;5074;53.720;10.014;2022-12-07T09:31:12;2.10;99.90
10070;DHT22;5074;53.720;10.014;2022-12-07T09:33:53;2.20;99.90
10070;DHT22;5074;53.720;10.014;2022-12-07T09:36:24;2.20;99.90
10070;DHT22;5074;53.720;10.014;2022-12-07T09:38:52;2.20;99.90
10070;DHT22;5074;53.720;10.014;2022-12-07T09:41:21;2.20;99.90
10070;DHT22;5074;53.720;10.014;2022-12-07T09:43:51;2.30;99.90
10070;DHT22;5074;53.720;10.014;2022-12-07T09:46:20;2.40;99.90
10070;DHT22;5074;53.720;10.014;2022-12-07T09:48:49;2.40;99.90
10070;DHT22;5074;53.720;10.014;2022-12-07T09:51:19;2.40;99.90
10070;DHT22;5074;53.720;10.014;2022-12-07T09:53:53;2.50;99.90
10070;DHT22;5074;53.720;10.014;2022-12-07T09:56:23;2.50;99.90
10070;DHT22;5074;53.720;10.014;2022-12-07T09:58:55;2.50;99.90
10070;DHT22;5074;53.720;10.014;2022-12-07T10:01:29;2.50;99.90
10070;DHT22;5074;53.720;10.014;2022-12-07T10:04:01;2.50;99.90
10070;DHT22;5074;53.720;10.014;2022-12-07T10:06:37;2.60;99.90
10070;DHT22;5074;53.720;10.014;2022-12-07T10:09:10;2.60;99.90
10070;DHT22;5074;53.720;10.014;2022-12-07T10:14:26;2.60;99.90
10070;DHT22;5074;53.720;10.014;2022-12-07T10:17:32;2.70;99.90
10070;DHT22;5074;53.720;10.014;2022-12-07T10:20:13;2.70;99.90
10070;DHT22;5074;53.720;10.014;2022-12-07T10:25:42;2.70;99.90
10070;DHT22;5074;53.720;10.014;2022-12-07T10:28:14;2.80;99.90
10070;DHT22;5074;53.720;10.014;2022-12-07T10:30:51;2.80;99.90
10070;DHT22;5074;53.720;10.014;2022-12-07T10:33:30;2.90;99.90
10070;DHT22;5074;53.720;10.014;2022-12-07T10:36:00;2.90;99.90
10070;DHT22;5074;53.720;10.014;2022-12-07T10:38:44;2.90;99.90
10070;DHT22;5074;53.720;10.014;2022-12-07T10:41:14;3.00;99.90
10070;DHT22;5074;53.720;10.014;2022-12-07T10:43:46;3.00;99.90
10070;DHT22;5074;53.720;10.014;2022-12-07T10:52:47;3.00;99.90
10070;DHT22;5074;53.720;10.014;2022-12-07T10:55:34;3.10;99.90
10070;DHT22;5074;53.720;10.014;2022-12-07T10:58:24;3.10;99.90
10070;DHT22;5074;53.720;10.014;2022-12-07T11:01:06;3.10;99.90
10070;DHT22;5074;53.720;10.014;2022-12-07T11:03:49;3.20;99.90
10070;DHT22;5074;53.720;10.014;2022-12-07T11:06:30;3.20;99.90
10070;DHT22;5074;53.720;10.014;2022-12-07T11:09:04;3.30;99.90
10070;DHT22;5074;53.720;10.014;2022-12-07T11:12:13;3.30;99.90
10070;DHT22;5074;53.720;10.014;2022-12-07T11:14:54;3.30;99.90
10070;DHT22;5074;53.720;10.014;2022-12-07T11:17:27;3.30;99.90
10070;DHT22;5074;53.720;10.014;2022-12-07T11:20:05;3.40;99.90
10070;DHT22;5074;53.720;10.014;2022-12-07T11:22:50;3.40;99.90
10070;DHT22;5074;53.720;10.014;2022-12-07T11:25:25;3.40;99.90
10070;DHT22;5074;53.720;10.014;2022-12-07T11:28:04;3.50;99.90
10070;DHT22;5074;53.720;10.014;2022-12-07T11:30:49;3.50;99.90
10070;DHT22;5074;53.720;10.014;2022-12-07T11:33:26;3.50;99.90
10070;DHT22;5074;53.720;10.014;2022-12-07T11:36:02;3.50;99.90
10070;DHT22;5074;53.720;10.014;2022-12-07T11:38:46;3.50;99.90
10070;DHT22;5074;53.720;10.014;2022-12-07T11:41:20;3.50;99.90
10070;DHT22;5074;53.720;10.014;2022-12-07T11:43:55;3.50;99.90
10070;DHT22;5074;53.720;10.014;2022-12-07T11:46:29;3.60;99.90
10070;DHT22;5074;53.720;10.014;2022-12-07T11:49:13;3.60;99.90
10070;DHT22;5074;53.720;10.014;2022-12-07T11:51:46;3.70;99.90
10070;DHT22;5074;53.720;10.014;2022-12-07T11:54:19;3.70;99.90
10070;DHT22;5074;53.720;10.014;2022-12-07T11:56:51;3.70;99.90
10070;DHT22;5074;53.720;10.014;2022-12-07T11:59:23;3.80;99.90
10070;DHT22;5074;53.720;10.014;2022-12-07T12:02:02;3.80;99.90
10070;DHT22;5074;53.720;10.014;2022-12-07T12:04:44;3.80;99.90
10070;DHT22;5074;53.720;10.014;2022-12-07T12:07:19;3.90;99.90
10070;DHT22;5074;53.720;10.014;2022-12-07T12:10:14;3.90;99.90
10070;DHT22;5074;53.720;10.014;2022-12-07T12:12:52;3.80;99.90
10070;DHT22;5074;53.720;10.014;2022-12-07T12:15:55;3.90;99.90
10070;DHT22;5074;53.720;10.014;2022-12-07T12:18:49;3.90;99.90
10070;DHT22;5074;53.720;10.014;2022-12-07T12:21:26;3.90;99.90
10070;DHT22;5074;53.720;10.014;2022-12-07T12:23:55;3.90;99.90
10070;DHT22;5074;53.720;10.014;2022-12-07T12:26:27;3.90;99.90
10070;DHT22;5074;53.720;10.014;2022-12-07T12:28:57;4.00;99.90
10070;DHT22;5074;53.720;10.014;2022-12-07T12:31:30;4.00;99.90
10070;DHT22;5074;53.720;10.014;2022-12-07T12:34:04;3.90;99.90
10070;DHT22;5074;53.720;10.014;2022-12-07T12:36:47;3.90;99.90
10070;DHT22;5074;53.720;10.014;2022-12-07T12:39:16;4.00;99.90
10070;DHT22;5074;53.720;10.014;2022-12-07T12:42:00;4.00;99.90
10070;DHT22;5074;53.720;10.014;2022-12-07T12:44:41;4.00;99.90
10070;DHT22;5074;53.720;10.014;2022-12-07T12:50:26;4.00;99.90
10070;DHT22;5074;53.720;10.014;2022-12-07T12:56:10;4.00;99.90
10070;DHT22;5074;53.720;10.014;2022-12-07T13:01:53;4.00;99.90
10070;DHT22;5074;53.720;10.014;2022-12-07T13:10:25;3.90;99.90
10070;DHT22;5074;53.720;10.014;2022-12-07T13:13:03;3.90;99.90
10070;DHT22;5074;53.720;10.014;2022-12-07T13:15:33;3.90;99.90
10070;DHT22;5074;53.720;10.014;2022-12-07T13:18:22;4.00;99.90
10070;DHT22;5074;53.720;10.014;2022-12-07T13:20:52;4.00;99.90
10070;DHT22;5074;53.720;10.014;2022-12-07T13:23:27;4.00;99.90
10070;DHT22;5074;53.720;10.014;2022-12-07T13:26:03;4.00;99.90
10070;DHT22;5074;53.720;10.014;2022-12-07T13:28:44;4.00;99.90
10070;DHT22;5074;53.720;10.014;2022-12-07T13:31:27;4.00;99.90
10070;DHT22;5074;53.720;10.014;2022-12-07T13:34:00;3.90;99.90
10070;DHT22;5074;53.720;10.014;2022-12-07T13:36:30;3.80;99.90
10070;DHT22;5074;53.720;10.014;2022-12-07T13:39:16;3.80;99.90
10070;DHT22;5074;53.720;10.014;2022-12-07T13:41:49;3.80;99.90
10070;DHT22;5074;53.720;10.014;2022-12-07T13:44:18;3.80;99.90
10070;DHT22;5074;53.720;10.014;2022-12-07T13:46:49;3.80;99.90
10070;DHT22;5074;53.720;10.014;2022-12-07T13:49:22;3.80;99.90
10070;DHT22;5074;53.720;10.014;2022-12-07T13:51:52;3.70;99.90
10070;DHT22;5074;53.720;10.014;2022-12-07T13:54:22;3.60;99.90
10070;DHT22;5074;53.720;10.014;2022-12-07T13:56:51;3.60;99.90
10070;DHT22;5074;53.720;10.014;2022-12-07T13:59:22;3.50;99.90
10070;DHT22;5074;53.720;10.014;2022-12-07T14:01:53;3.50;99.90
10070;DHT22;5074;53.720;10.014;2022-12-07T14:04:29;3.50;99.90
10070;DHT22;5074;53.720;10.014;2022-12-07T14:09:55;3.40;99.90
10070;DHT22;5074;53.720;10.014;2022-12-07T14:12:24;3.40;99.90
10070;DHT22;5074;53.720;10.014;2022-12-07T14:14:54;3.30;99.90
10070;DHT22;5074;53.720;10.014;2022-12-07T14:17:24;3.40;99.90
10070;DHT22;5074;53.720;10.014;2022-12-07T14:19:54;3.30;99.90
10070;DHT22;5074;53.720;10.014;2022-12-07T14:22:25;3.20;99.90
10070;DHT22;5074;53.720;10.014;2022-12-07T14:25:15;3.20;99.90
10070;DHT22;5074;53.720;10.014;2022-12-07T14:27:49;3.20;99.90
10070;DHT22;5074;53.720;10.014;2022-12-07T14:30:23;3.10;99.90
10070;DHT22;5074;53.720;10.014;2022-12-07T14:32:54;3.10;99.90
10070;DHT22;5074;53.720;10.014;2022-12-07T14:35:25;3.10;99.90
10070;DHT22;5074;53.720;10.014;2022-12-07T14:37:53;3.10;99.90
10070;DHT22;5074;53.720;10.014;2022-12-07T14:40:23;3.10;99.90
10070;DHT22;5074;53.720;10.014;2022-12-07T14:42:53;3.10;99.90
10070;DHT22;5074;53.720;10.014;2022-12-07T14:45:24;3.00;99.90
10070;DHT22;5074;53.720;10.014;2022-12-07T14:47:52;3.00;99.90
10070;DHT22;5074;53.720;10.014;2022-12-07T14:50:42;2.90;99.90
10070;DHT22;5074;53.720;10.014;2022-12-07T14:53:33;2.90;99.90
10070;DHT22;5074;53.720;10.014;2022-12-07T14:56:06;2.90;99.90
10070;DHT22;5074;53.720;10.014;2022-12-07T14:58:35;2.80;99.90
10070;DHT22;5074;53.720;10.014;2022-12-07T15:01:03;2.70;99.90
10070;DHT22;5074;53.720;10.014;2022-12-07T15:03:31;2.70;99.90
10070;DHT22;5074;53.720;10.014;2022-12-07T15:06:01;2.70;99.90
10070;DHT22;5074;53.720;10.014;2022-12-07T15:08:30;2.60;99.90
10070;DHT22;5074;53.720;10.014;2022-12-07T15:10:59;2.60;99.90
10070;DHT22;5074;53.720;10.014;2022-12-07T15:13:28;2.50;99.90
10070;DHT22;5074;53.720;10.014;2022-12-07T15:16:14;2.50;99.90
10070;DHT22;5074;53.720;10.014;2022-12-07T15:18:46;2.50;99.90
10070;DHT22;5074;53.720;10.014;2022-12-07T15:21:34;2.40;99.90
10070;DHT22;5074;53.720;10.014;2022-12-07T15:24:02;2.30;99.90
10070;DHT22;5074;53.720;10.014;2022-12-07T15:26:30;2.30;99.90
10070;DHT22;5074;53.720;10.014;2022-12-07T15:29:00;2.20;99.90
10070;DHT22;5074;53.720;10.014;2022-12-07T15:31:28;2.30;99.90
10070;DHT22;5074;53.720;10.014;2022-12-07T15:34:16;2.20;99.90
10070;DHT22;5074;53.720;10.014;2022-12-07T15:36:44;2.20;99.90
10070;DHT22;5074;53.720;10.014;2022-12-07T15:39:12;2.20;99.90
10070;DHT22;5074;53.720;10.014;2022-12-07T15:41:41;2.00;99.90
10070;DHT22;5074;53.720;10.014;2022-12-07T15:44:11;2.00;99.90
10070;DHT22;5074;53.720;10.014;2022-12-07T15:46:57;2.00;99.90
10070;DHT22;5074;53.720;10.014;2022-12-07T15:49:26;2.00;99.90
10070;DHT22;5074;53.720;10.014;2022-12-07T15:51:54;1.90;99.90
10070;DHT22;5074;53.720;10.014;2022-12-07T15:54:23;1.90;99.90
10070;DHT22;5074;53.720;10.014;2022-12-07T15:56:53;1.80;99.90
10070;DHT22;5074;53.720;10.014;2022-12-07T15:59:23;1.70;99.90
10070;DHT22;5074;53.720;10.014;2022-12-07T16:01:54;1.80;99.90
10070;DHT22;5074;53.720;10.014;2022-12-07T16:04:22;1.70;99.90
10070;DHT22;5074;53.720;10.014;2022-12-07T16:06:51;1.60;99.90
10070;DHT22;5074;53.720;10.014;2022-12-07T16:09:19;1.60;99.90
10070;DHT22;5074;53.720;10.014;2022-12-07T16:11:47;1.60;99.90
10070;DHT22;5074;53.720;10.014;2022-12-07T16:14:16;1.60;99.90
10070;DHT22;5074;53.720;10.014;2022-12-07T16:16:46;1.60;99.90
10070;DHT22;5074;53.720;10.014;2022-12-07T16:19:14;1.60;99.90
10070;DHT22;5074;53.720;10.014;2022-12-07T16:21:42;1.60;99.90
10070;DHT22;5074;53.720;10.014;2022-12-07T16:24:10;1.50;99.90
10070;DHT22;5074;53.720;10.014;2022-12-07T16:26:39;1.50;99.90
10070;DHT22;5074;53.720;10.014;2022-12-07T16:29:15;1.50;99.90
10070;DHT22;5074;53.720;10.014;2022-12-07T16:31:43;1.50;99.90
10070;DHT22;5074;53.720;10.014;2022-12-07T16:34:13;1.40;99.90
10070;DHT22;5074;53.720;10.014;2022-12-07T16:36:41;1.40;99.90
10070;DHT22;5074;53.720;10.014;2022-12-07T16:39:29;1.30;99.90
10070;DHT22;5074;53.720;10.014;2022-12-07T16:41:57;1.30;99.90
10070;DHT22;5074;53.720;10.014;2022-12-07T16:44:25;1.30;99.90
10070;DHT22;5074;53.720;10.014;2022-12-07T16:46:53;1.30;99.90
10070;DHT22;5074;53.720;10.014;2022-12-07T16:49:23;1.30;99.90